createdAt,value
2019-06-08T00:00:13.205Z,99.99
2019-06-08T00:01:12.245Z,99.99
2019-06-08T00:02:12.514Z,99.99
2019-06-08T00:03:13.039Z,99.99
2019-06-08T00:04:12.857Z,99.99
2019-06-08T00:05:12.466Z,99.99
2019-06-08T00:06:12.495Z,99.99
2019-06-08T00:07:12.957Z,99.99
2019-06-08T00:08:11.141Z,99.99
2019-06-08T00:09:11.141Z,99.99
2019-06-08T00:10:11.139Z,99.99
2019-06-08T00:11:11.140Z,99.99
2019-06-08T00:12:11.155Z,99.99
2019-06-08T00:13:11.146Z,99.99
2019-06-08T00:14:11.142Z,99.99
2019-06-08T00:15:11.146Z,99.99
2019-06-08T00:16:11.145Z,99.99
2019-06-08T00:17:24.297Z,99.99
2019-06-08T00:18:11.218Z,99.99
2019-06-08T00:19:11.147Z,99.99
2019-06-08T00:20:11.149Z,99.99
2019-06-08T00:21:11.188Z,99.99
2019-06-08T00:22:11.149Z,99.99
2019-06-08T00:23:11.156Z,99.99
2019-06-08T00:24:11.151Z,99.99
2019-06-08T00:25:11.151Z,99.99
2019-06-08T00:26:11.160Z,99.99
2019-06-08T00:27:11.154Z,99.99
2019-06-08T00:28:11.153Z,99.99
2019-06-08T00:29:11.152Z,99.99
2019-06-08T00:30:11.158Z,99.99
2019-06-08T00:31:11.157Z,99.99
2019-06-08T00:32:11.161Z,99.99
2019-06-08T00:33:11.203Z,99.99
2019-06-08T00:34:11.157Z,99.99
2019-06-08T00:35:11.159Z,99.99
2019-06-08T00:36:11.168Z,99.99
2019-06-08T00:37:11.205Z,99.99
2019-06-08T00:38:11.162Z,99.99
2019-06-08T00:39:11.184Z,99.99
2019-06-08T00:40:11.189Z,99.99
2019-06-08T00:41:11.159Z,99.99
2019-06-08T00:42:11.203Z,99.99
2019-06-08T00:43:11.170Z,99.99
2019-06-08T00:44:11.175Z,99.99
2019-06-08T00:45:11.167Z,99.99
2019-06-08T00:46:11.169Z,99.99
2019-06-08T00:47:11.170Z,99.99
2019-06-08T00:48:11.174Z,99.99
2019-06-08T00:49:11.170Z,99.99
2019-06-08T00:50:11.169Z,99.99
2019-06-08T00:51:11.175Z,99.99
2019-06-08T00:52:11.195Z,99.99
2019-06-08T00:53:11.174Z,99.99
2019-06-08T00:54:11.175Z,99.99
2019-06-08T00:55:11.175Z,99.99
2019-06-08T00:56:11.179Z,99.99
2019-06-08T00:57:11.188Z,99.99
2019-06-08T00:58:11.223Z,99.99
2019-06-08T00:59:11.180Z,99.99
2019-06-08T01:00:11.694Z,99.99
2019-06-08T01:01:11.180Z,99.99
2019-06-08T01:02:11.185Z,99.99
2019-06-08T01:03:11.191Z,99.99
2019-06-08T01:04:11.185Z,99.99
2019-06-08T01:05:11.187Z,99.99
2019-06-08T01:06:11.214Z,99.99
2019-06-08T01:07:11.185Z,99.99
2019-06-08T01:08:11.220Z,99.99
2019-06-08T01:09:11.184Z,99.99
2019-06-08T01:10:11.185Z,99.99
2019-06-08T01:11:11.187Z,99.99
2019-06-08T01:12:11.236Z,99.99
2019-06-08T01:13:11.191Z,99.99
2019-06-08T01:14:11.188Z,99.99
2019-06-08T01:15:11.271Z,99.99
2019-06-08T01:16:11.192Z,99.99
2019-06-08T01:17:11.193Z,99.99
2019-06-08T01:18:11.199Z,99.99
2019-06-08T01:19:11.196Z,99.99
2019-06-08T01:20:11.196Z,99.99
2019-06-08T01:21:11.198Z,99.99
2019-06-08T01:22:11.197Z,99.99
2019-06-08T01:23:11.199Z,99.99
2019-06-08T01:24:11.201Z,99.99
2019-06-08T01:25:11.201Z,99.99
2019-06-08T01:26:11.200Z,99.99
2019-06-08T01:27:11.205Z,99.99
2019-06-08T01:28:11.205Z,99.99
2019-06-08T01:29:11.206Z,99.99
2019-06-08T01:30:11.206Z,99.99
2019-06-08T01:31:11.206Z,99.99
2019-06-08T01:32:11.207Z,99.99
2019-06-08T01:33:11.217Z,99.99
2019-06-08T01:34:11.209Z,99.99
2019-06-08T01:35:11.211Z,99.99
2019-06-08T01:36:11.214Z,99.99
2019-06-08T01:37:11.209Z,99.99
2019-06-08T01:38:11.210Z,99.99
2019-06-08T01:39:11.213Z,99.99
2019-06-08T01:40:11.231Z,99.99
2019-06-08T01:41:11.213Z,99.99
2019-06-08T01:42:11.217Z,99.99
2019-06-08T01:43:11.224Z,99.99
2019-06-08T01:44:11.219Z,99.99
2019-06-08T01:45:11.217Z,99.99
2019-06-08T01:46:11.218Z,99.99
2019-06-08T01:47:11.226Z,99.99
2019-06-08T01:48:19.963Z,99.99
2019-06-08T01:49:11.224Z,99.99
2019-06-08T01:50:11.224Z,99.99
2019-06-08T01:51:11.222Z,99.99
2019-06-08T01:52:11.229Z,99.99
2019-06-08T01:53:11.225Z,99.99
2019-06-08T01:54:11.229Z,99.99
2019-06-08T01:55:11.271Z,99.99
2019-06-08T01:56:11.229Z,99.99
2019-06-08T01:57:11.228Z,99.99
2019-06-08T01:58:11.238Z,99.99
2019-06-08T01:59:11.232Z,99.99
2019-06-08T02:00:29.640Z,99.99
2019-06-08T02:01:11.235Z,99.99
2019-06-08T02:02:11.235Z,99.99
2019-06-08T02:03:11.235Z,99.99
2019-06-08T02:04:11.235Z,99.99
2019-06-08T02:05:11.547Z,99.99
2019-06-08T02:06:11.269Z,99.99
2019-06-08T02:07:11.236Z,99.99
2019-06-08T02:08:11.239Z,99.99
2019-06-08T02:09:11.236Z,99.99
2019-06-08T02:10:11.243Z,99.99
2019-06-08T02:11:11.244Z,99.99
2019-06-08T02:12:11.256Z,99.99
2019-06-08T02:13:11.245Z,99.99
2019-06-08T02:14:11.240Z,99.99
2019-06-08T02:15:11.241Z,99.99
2019-06-08T02:16:11.243Z,99.99
2019-06-08T02:17:11.241Z,99.99
2019-06-08T02:18:11.240Z,99.99
2019-06-08T02:19:11.300Z,99.99
2019-06-08T02:20:11.241Z,99.99
2019-06-08T02:21:11.243Z,99.99
2019-06-08T02:22:11.245Z,99.99
2019-06-08T02:23:11.239Z,99.99
2019-06-08T02:24:11.239Z,99.99
2019-06-08T02:25:11.239Z,99.99
2019-06-08T02:26:11.239Z,99.99
2019-06-08T02:27:11.240Z,99.99
2019-06-08T02:28:11.238Z,99.99
2019-06-08T02:29:11.245Z,99.99
2019-06-08T02:30:11.237Z,99.99
2019-06-08T02:31:11.240Z,99.99
2019-06-08T02:32:11.242Z,99.99
2019-06-08T02:33:11.242Z,99.99
2019-06-08T02:34:11.239Z,99.99
2019-06-08T02:35:11.235Z,99.99
2019-06-08T02:36:11.239Z,99.99
2019-06-08T02:37:11.241Z,99.99
2019-06-08T02:38:11.236Z,99.99
2019-06-08T02:39:11.241Z,99.99
2019-06-08T02:40:11.241Z,99.99
2019-06-08T02:41:11.234Z,99.99
2019-06-08T02:42:11.238Z,99.99
2019-06-08T02:43:11.235Z,99.99
2019-06-08T02:44:11.238Z,99.99
2019-06-08T02:45:11.236Z,99.99
2019-06-08T02:46:11.235Z,99.99
2019-06-08T02:47:11.235Z,99.99
2019-06-08T02:48:11.237Z,99.99
2019-06-08T02:49:11.230Z,99.99
2019-06-08T02:50:11.231Z,99.99
2019-06-08T02:51:11.236Z,99.99
2019-06-08T02:52:11.231Z,99.99
2019-06-08T02:53:11.233Z,99.99
2019-06-08T02:54:11.228Z,99.99
2019-06-08T02:55:11.228Z,99.99
2019-06-08T02:56:11.228Z,99.99
2019-06-08T02:57:11.237Z,99.99
2019-06-08T02:58:11.228Z,99.99
2019-06-08T02:59:11.227Z,99.99
2019-06-08T03:00:11.226Z,99.99
2019-06-08T03:01:11.225Z,99.99
2019-06-08T03:02:11.228Z,99.99
2019-06-08T03:03:11.226Z,99.99
2019-06-08T03:04:11.228Z,99.99
2019-06-08T03:05:11.222Z,99.99
2019-06-08T03:06:11.224Z,99.99
2019-06-08T03:07:11.221Z,99.99
2019-06-08T03:08:11.219Z,99.99
2019-06-08T03:09:11.222Z,99.99
2019-06-08T03:10:11.220Z,99.99
2019-06-08T03:11:11.220Z,99.99
2019-06-08T03:12:11.223Z,99.99
2019-06-08T03:13:11.220Z,99.99
2019-06-08T03:14:11.235Z,99.99
2019-06-08T03:15:11.217Z,99.99
2019-06-08T03:16:11.219Z,99.99
2019-06-08T03:17:11.214Z,99.99
2019-06-08T03:18:11.210Z,99.99
2019-06-08T03:19:21.881Z,99.99
2019-06-08T03:20:11.214Z,99.99
2019-06-08T03:21:11.216Z,99.99
2019-06-08T03:22:11.388Z,99.99
2019-06-08T03:23:11.216Z,99.99
2019-06-08T03:24:11.210Z,99.99
2019-06-08T03:25:11.211Z,99.99
2019-06-08T03:26:11.208Z,99.99
2019-06-08T03:27:11.213Z,99.99
2019-06-08T03:28:11.210Z,99.99
2019-06-08T03:29:11.205Z,99.99
2019-06-08T03:30:17.051Z,99.99
2019-06-08T03:31:11.217Z,99.99
2019-06-08T03:32:11.243Z,99.99
2019-06-08T03:33:11.209Z,99.99
2019-06-08T03:34:11.202Z,99.99
2019-06-08T03:35:11.205Z,99.99
2019-06-08T03:36:11.217Z,99.99
2019-06-08T03:37:11.203Z,99.99
2019-06-08T03:38:11.211Z,99.99
2019-06-08T03:39:11.209Z,99.99
2019-06-08T03:40:11.200Z,99.99
2019-06-08T03:41:11.210Z,99.99
2019-06-08T03:42:11.201Z,99.99
2019-06-08T03:43:11.212Z,99.99
2019-06-08T03:44:11.197Z,99.99
2019-06-08T03:45:11.214Z,99.99
2019-06-08T03:46:11.202Z,99.99
2019-06-08T03:47:11.197Z,99.99
2019-06-08T03:48:11.196Z,99.99
2019-06-08T03:49:11.193Z,99.99
2019-06-08T03:50:11.194Z,99.99
2019-06-08T03:51:11.192Z,99.99
2019-06-08T03:52:11.192Z,99.99
2019-06-08T03:53:11.192Z,99.99
2019-06-08T03:54:11.196Z,99.99
2019-06-08T03:55:11.198Z,99.99
2019-06-08T03:56:11.193Z,99.99
2019-06-08T03:57:11.206Z,99.99
2019-06-08T03:58:11.191Z,99.99
2019-06-08T03:59:11.187Z,99.99
2019-06-08T04:00:13.231Z,99.99
2019-06-08T04:01:11.186Z,99.99
2019-06-08T04:02:11.186Z,99.99
2019-06-08T04:03:11.188Z,99.99
2019-06-08T04:04:11.184Z,99.99
2019-06-08T04:05:11.183Z,99.99
2019-06-08T04:06:11.186Z,99.99
2019-06-08T04:07:11.183Z,99.99
2019-06-08T04:08:11.182Z,99.99
2019-06-08T04:09:11.178Z,99.99
2019-06-08T04:10:11.181Z,99.99
2019-06-08T04:11:11.183Z,99.99
2019-06-08T04:12:11.181Z,99.99
2019-06-08T04:13:11.886Z,99.99
2019-06-08T04:14:11.183Z,99.99
2019-06-08T04:15:11.198Z,99.99
2019-06-08T04:16:11.180Z,99.99
2019-06-08T04:17:11.188Z,99.99
2019-06-08T04:18:11.180Z,99.99
2019-06-08T04:19:11.183Z,99.99
2019-06-08T04:20:12.205Z,99.99
2019-06-08T04:21:11.193Z,99.99
2019-06-08T04:22:11.187Z,99.99
2019-06-08T04:23:11.179Z,99.99
2019-06-08T04:24:11.178Z,99.99
2019-06-08T04:25:11.175Z,99.99
2019-06-08T04:26:11.176Z,99.99
2019-06-08T04:27:11.178Z,99.99
2019-06-08T04:28:11.171Z,99.99
2019-06-08T04:29:11.166Z,99.99
2019-06-08T04:30:11.178Z,99.99
2019-06-08T04:31:11.168Z,99.99
2019-06-08T04:32:11.167Z,99.99
2019-06-08T04:33:11.165Z,99.99
2019-06-08T04:34:11.163Z,99.99
2019-06-08T04:35:11.165Z,99.99
2019-06-08T04:36:11.172Z,99.99
2019-06-08T04:37:11.164Z,99.99
2019-06-08T04:38:11.170Z,99.99
2019-06-08T04:39:11.161Z,99.99
2019-06-08T04:40:11.164Z,99.99
2019-06-08T04:41:11.160Z,99.99
2019-06-08T04:42:11.161Z,99.99
2019-06-08T04:43:11.161Z,99.99
2019-06-08T04:44:11.164Z,99.99
2019-06-08T04:45:11.157Z,99.99
2019-06-08T04:46:11.166Z,99.99
2019-06-08T04:47:11.153Z,99.99
2019-06-08T04:48:11.165Z,99.99
2019-06-08T04:49:11.155Z,99.99
2019-06-08T04:50:22.532Z,99.99
2019-06-08T04:51:11.153Z,99.99
2019-06-08T04:52:11.154Z,99.99
2019-06-08T04:53:11.153Z,99.99
2019-06-08T04:54:14.350Z,99.99
2019-06-08T04:55:11.154Z,99.99
2019-06-08T04:56:11.154Z,99.99
2019-06-08T04:57:11.154Z,99.99
2019-06-08T04:58:11.156Z,99.99
2019-06-08T04:59:11.154Z,99.99
2019-06-08T05:00:13.015Z,99.99
2019-06-08T05:01:11.151Z,99.99
2019-06-08T05:02:11.150Z,99.99
2019-06-08T05:03:11.153Z,99.99
2019-06-08T05:04:11.149Z,99.99
2019-06-08T05:05:11.149Z,99.99
2019-06-08T05:06:11.153Z,99.99
2019-06-08T05:07:11.150Z,99.99
2019-06-08T05:08:11.150Z,99.99
2019-06-08T05:09:11.148Z,99.99
2019-06-08T05:10:11.151Z,99.99
2019-06-08T05:11:11.158Z,99.99
2019-06-08T05:12:11.148Z,99.99
2019-06-08T05:13:11.147Z,99.99
2019-06-08T05:14:11.147Z,99.99
2019-06-08T05:15:11.147Z,99.99
2019-06-08T05:16:11.148Z,99.99
2019-06-08T05:17:11.145Z,99.99
2019-06-08T05:18:11.146Z,99.99
2019-06-08T05:19:11.148Z,99.99
2019-06-08T05:20:11.146Z,99.99
2019-06-08T05:21:11.143Z,99.99
2019-06-08T05:22:11.147Z,99.99
2019-06-08T05:23:11.147Z,99.99
2019-06-08T05:24:11.147Z,99.99
2019-06-08T05:25:11.143Z,99.99
2019-06-08T05:26:11.143Z,99.99
2019-06-08T05:27:11.243Z,99.99
2019-06-08T05:28:11.145Z,99.99
2019-06-08T05:29:11.160Z,99.99
2019-06-08T05:30:11.146Z,99.99
2019-06-08T05:31:11.151Z,99.99
2019-06-08T05:32:11.153Z,99.99
2019-06-08T05:33:11.148Z,99.99
2019-06-08T05:34:11.145Z,99.99
2019-06-08T05:35:11.145Z,98.14
2019-06-08T05:36:11.183Z,95.64
2019-06-08T05:37:11.147Z,93.57
2019-06-08T05:38:11.147Z,90.23
2019-06-08T05:39:11.153Z,87.23
2019-06-08T05:40:11.166Z,82.68
2019-06-08T05:41:11.145Z,79.97
2019-06-08T05:42:11.145Z,77.78
2019-06-08T05:43:11.147Z,76.99
2019-06-08T05:44:11.152Z,75.34
2019-06-08T05:45:11.148Z,75.42
2019-06-08T05:46:11.149Z,73.32
2019-06-08T05:47:11.149Z,72.13
2019-06-08T05:48:11.156Z,70.15
2019-06-08T05:49:11.153Z,70.19
2019-06-08T05:50:11.151Z,69.32
2019-06-08T05:51:11.157Z,68.28
2019-06-08T05:52:11.157Z,67.70
2019-06-08T05:53:11.155Z,67.63
2019-06-08T05:54:11.160Z,67.34
2019-06-08T05:55:11.162Z,66.14
2019-06-08T05:56:11.163Z,66.79
2019-06-08T05:57:11.167Z,67.89
2019-06-08T05:58:11.169Z,67.11
2019-06-08T05:59:11.169Z,66.14
2019-06-08T06:00:11.234Z,67.50
2019-06-08T06:01:11.173Z,67.34
2019-06-08T06:02:11.178Z,66.79
2019-06-08T06:03:11.184Z,65.98
2019-06-08T06:04:11.216Z,65.98
2019-06-08T06:05:11.182Z,65.04
2019-06-08T06:06:11.186Z,63.87
2019-06-08T06:07:11.191Z,63.29
2019-06-08T06:08:18.898Z,63.52
2019-06-08T06:09:11.199Z,63.13
2019-06-08T06:10:11.200Z,62.29
2019-06-08T06:11:11.205Z,61.54
2019-06-08T06:12:11.207Z,62.93
2019-06-08T06:13:11.209Z,63.04
2019-06-08T06:14:11.216Z,63.36
2019-06-08T06:15:11.224Z,64.01
2019-06-08T06:16:11.224Z,63.97
2019-06-08T06:17:11.221Z,62.57
2019-06-08T06:18:11.230Z,61.99
2019-06-08T06:19:11.241Z,61.54
2019-06-08T06:20:11.237Z,60.36
2019-06-08T06:21:12.267Z,59.59
2019-06-08T06:22:11.246Z,60.46
2019-06-08T06:23:11.258Z,59.03
2019-06-08T06:24:11.257Z,59.00
2019-06-08T06:25:11.263Z,59.23
2019-06-08T06:26:11.265Z,59.23
2019-06-08T06:27:11.271Z,58.31
2019-06-08T06:28:11.275Z,58.91
2019-06-08T06:29:11.280Z,61.47
2019-06-08T06:30:11.282Z,63.53
2019-06-08T06:31:11.288Z,65.40
2019-06-08T06:32:11.299Z,66.86
2019-06-08T06:33:11.307Z,66.79
2019-06-08T06:34:11.316Z,66.60
2019-06-08T06:35:11.315Z,66.92
2019-06-08T06:36:11.313Z,67.69
2019-06-08T06:37:11.319Z,68.05
2019-06-08T06:38:11.323Z,70.10
2019-06-08T06:39:11.328Z,71.23
2019-06-08T06:40:11.331Z,71.97
2019-06-08T06:41:11.339Z,72.74
2019-06-08T06:42:11.337Z,73.73
2019-06-08T06:43:11.345Z,74.04
2019-06-08T06:44:11.355Z,70.01
2019-06-08T06:45:11.355Z,67.69
2019-06-08T06:46:11.359Z,65.17
2019-06-08T06:47:11.361Z,65.08
2019-06-08T06:48:11.374Z,61.57
2019-06-08T06:49:11.371Z,60.17
2019-06-08T06:50:11.377Z,58.15
2019-06-08T06:51:25.316Z,58.28
2019-06-08T06:52:11.384Z,56.72
2019-06-08T06:53:11.389Z,57.24
2019-06-08T06:54:11.394Z,56.04
2019-06-08T06:55:11.399Z,55.90
2019-06-08T06:56:11.405Z,54.21
2019-06-08T06:57:11.409Z,53.95
2019-06-08T06:58:11.421Z,54.75
2019-06-08T06:59:11.417Z,53.03
2019-06-08T07:00:11.432Z,52.76
2019-06-08T07:01:11.431Z,53.25
2019-06-08T07:02:11.459Z,51.92
2019-06-08T07:03:11.441Z,52.22
2019-06-08T07:04:11.448Z,53.00
2019-06-08T07:05:11.454Z,53.44
2019-06-08T07:06:11.465Z,54.68
2019-06-08T07:07:11.468Z,54.23
2019-06-08T07:08:11.475Z,55.96
2019-06-08T07:09:11.472Z,56.74
2019-06-08T07:10:11.487Z,57.14
2019-06-08T07:11:11.497Z,57.67
2019-06-08T07:12:11.494Z,59.48
2019-06-08T07:13:11.500Z,60.58
2019-06-08T07:14:11.511Z,62.01
2019-06-08T07:15:11.523Z,62.69
2019-06-08T07:16:18.528Z,63.49
2019-06-08T07:17:11.527Z,65.34
2019-06-08T07:18:11.532Z,65.50
2019-06-08T07:19:11.537Z,66.33
2019-06-08T07:20:11.546Z,65.66
2019-06-08T07:21:11.547Z,66.59
2019-06-08T07:22:11.550Z,66.46
2019-06-08T07:23:11.558Z,67.24
2019-06-08T07:24:11.564Z,68.10
2019-06-08T07:25:11.566Z,68.59
2019-06-08T07:26:11.577Z,68.37
2019-06-08T07:27:11.575Z,65.85
2019-06-08T07:28:11.575Z,64.14
2019-06-08T07:29:11.631Z,61.68
2019-06-08T07:30:11.598Z,61.88
2019-06-08T07:31:11.598Z,60.61
2019-06-08T07:32:11.612Z,59.54
2019-06-08T07:33:11.602Z,59.76
2019-06-08T07:34:11.609Z,57.20
2019-06-08T07:35:11.615Z,56.81
2019-06-08T07:36:11.624Z,56.36
2019-06-08T07:37:11.630Z,57.89
2019-06-08T07:38:11.644Z,58.73
2019-06-08T07:39:11.641Z,59.94
2019-06-08T07:40:11.648Z,61.29
2019-06-08T07:41:11.649Z,62.10
2019-06-08T07:42:11.658Z,63.49
2019-06-08T07:43:11.663Z,64.72
2019-06-08T07:44:11.670Z,65.75
2019-06-08T07:45:11.675Z,66.78
2019-06-08T07:46:11.677Z,67.14
2019-06-08T07:47:11.689Z,68.49
2019-06-08T07:48:11.689Z,69.42
2019-06-08T07:49:11.690Z,71.16
2019-06-08T07:50:11.697Z,69.58
2019-06-08T07:51:11.701Z,70.26
2019-06-08T07:52:11.714Z,70.03
2019-06-08T07:53:11.707Z,71.09
2019-06-08T07:54:11.720Z,71.34
2019-06-08T07:55:11.713Z,71.44
2019-06-08T07:56:11.725Z,72.79
2019-06-08T07:57:11.724Z,72.60
2019-06-08T07:58:11.728Z,73.18
2019-06-08T07:59:11.733Z,74.72
2019-06-08T08:00:11.737Z,74.49
2019-06-08T08:01:11.748Z,74.01
2019-06-08T08:02:11.746Z,73.82
2019-06-08T08:03:11.748Z,73.47
2019-06-08T08:04:11.752Z,73.82
2019-06-08T08:05:11.755Z,74.43
2019-06-08T08:06:11.758Z,74.40
2019-06-08T08:07:11.762Z,73.82
2019-06-08T08:08:11.761Z,74.88
2019-06-08T08:09:11.766Z,75.01
2019-06-08T08:10:11.838Z,76.07
2019-06-08T08:11:11.771Z,75.30
2019-06-08T08:12:12.402Z,74.43
2019-06-08T08:13:11.785Z,73.41
2019-06-08T08:14:11.774Z,72.63
2019-06-08T08:15:11.782Z,73.11
2019-06-08T08:16:11.787Z,72.63
2019-06-08T08:17:11.788Z,72.73
2019-06-08T08:18:11.793Z,72.63
2019-06-08T08:19:11.793Z,73.79
2019-06-08T08:20:11.794Z,73.31
2019-06-08T08:21:21.299Z,72.54
2019-06-08T08:22:22.191Z,72.73
2019-06-08T08:23:11.809Z,74.18
2019-06-08T08:24:11.811Z,73.57
2019-06-08T08:25:11.811Z,73.47
2019-06-08T08:26:11.814Z,73.47
2019-06-08T08:27:11.817Z,74.24
2019-06-08T08:28:11.814Z,73.95
2019-06-08T08:29:11.826Z,74.05
2019-06-08T08:30:11.822Z,73.57
2019-06-08T08:31:15.083Z,73.62
2019-06-08T08:32:11.829Z,74.40
2019-06-08T08:33:11.831Z,74.30
2019-06-08T08:34:11.834Z,75.23
2019-06-08T08:35:11.837Z,75.13
2019-06-08T08:36:11.842Z,75.84
2019-06-08T08:37:11.844Z,77.00
2019-06-08T08:38:11.842Z,76.09
2019-06-08T08:39:11.846Z,76.13
2019-06-08T08:40:11.857Z,75.93
2019-06-08T08:41:11.851Z,75.74
2019-06-08T08:42:11.851Z,75.65
2019-06-08T08:43:11.851Z,75.07
2019-06-08T08:44:11.858Z,75.65
2019-06-08T08:45:11.861Z,76.03
2019-06-08T08:46:11.872Z,74.10
2019-06-08T08:47:11.862Z,74.74
2019-06-08T08:48:24.637Z,75.36
2019-06-08T08:49:13.005Z,75.55
2019-06-08T08:50:11.869Z,75.99
2019-06-08T08:51:11.873Z,75.45
2019-06-08T08:52:11.881Z,74.36
2019-06-08T08:53:11.877Z,75.03
2019-06-08T08:54:11.878Z,75.80
2019-06-08T08:55:11.882Z,76.15
2019-06-08T08:56:11.885Z,76.44
2019-06-08T08:57:11.888Z,76.44
2019-06-08T08:58:11.887Z,75.76
2019-06-08T08:59:11.893Z,75.96
2019-06-08T09:00:11.893Z,75.99
2019-06-08T09:01:11.893Z,75.99
2019-06-08T09:02:11.897Z,76.67
2019-06-08T09:03:28.436Z,76.63
2019-06-08T09:04:11.912Z,76.28
2019-06-08T09:05:11.914Z,76.38
2019-06-08T09:06:11.910Z,76.86
2019-06-08T09:07:11.917Z,76.80
2019-06-08T09:08:11.914Z,75.55
2019-06-08T09:09:11.914Z,76.03
2019-06-08T09:10:11.925Z,75.93
2019-06-08T09:11:11.911Z,74.97
2019-06-08T09:12:11.915Z,74.82
2019-06-08T09:13:12.286Z,75.40
2019-06-08T09:14:14.015Z,74.14
2019-06-08T09:15:11.938Z,72.60
2019-06-08T09:16:11.932Z,72.79
2019-06-08T09:17:11.927Z,73.18
2019-06-08T09:18:11.935Z,71.64
2019-06-08T09:19:11.932Z,73.11
2019-06-08T09:20:15.275Z,73.41
2019-06-08T09:21:11.933Z,72.83
2019-06-08T09:22:11.951Z,71.86
2019-06-08T09:23:16.317Z,72.15
2019-06-08T09:24:12.006Z,71.28
2019-06-08T09:25:13.658Z,71.83
2019-06-08T09:26:13.343Z,72.31
2019-06-08T09:27:11.997Z,71.56
2019-06-08T09:28:11.974Z,71.85
2019-06-08T09:29:12.032Z,71.66
2019-06-08T09:30:11.954Z,72.53
2019-06-08T09:31:13.088Z,72.24
2019-06-08T09:32:11.959Z,72.53
2019-06-08T09:33:11.965Z,71.76
2019-06-08T09:34:15.312Z,72.33
2019-06-08T09:35:11.964Z,72.72
2019-06-08T09:36:11.977Z,71.37
2019-06-08T09:37:11.970Z,71.47
2019-06-08T09:38:11.970Z,71.66
2019-06-08T09:39:13.127Z,70.89
2019-06-08T09:40:11.985Z,72.08
2019-06-08T09:41:11.977Z,71.89
2019-06-08T09:42:12.014Z,71.79
2019-06-08T09:43:13.227Z,72.56
2019-06-08T09:44:12.185Z,73.24
2019-06-08T09:45:11.989Z,72.31
2019-06-08T09:46:11.993Z,72.02
2019-06-08T09:47:12.543Z,71.06
2019-06-08T09:48:12.007Z,70.90
2019-06-08T09:49:12.116Z,70.96
2019-06-08T09:50:12.015Z,69.61
2019-06-08T09:51:12.013Z,69.61
2019-06-08T09:52:12.030Z,68.52
2019-06-08T09:53:23.930Z,69.19
2019-06-08T09:54:13.076Z,71.02
2019-06-08T09:55:12.018Z,70.70
2019-06-08T09:56:12.018Z,70.83
2019-06-08T09:57:12.014Z,69.87
2019-06-08T09:58:12.049Z,72.27
2019-06-08T09:59:15.191Z,71.60
2019-06-08T10:00:17.760Z,70.64
2019-06-08T10:01:12.508Z,70.44
2019-06-08T10:02:13.020Z,70.83
2019-06-08T10:03:12.039Z,70.64
2019-06-08T10:04:12.031Z,71.50
2019-06-08T10:05:12.029Z,70.64
2019-06-08T10:06:12.755Z,70.83
2019-06-08T10:07:12.031Z,71.12
2019-06-08T10:08:12.037Z,71.85
2019-06-08T10:09:12.036Z,71.81
2019-06-08T10:10:12.050Z,72.63
2019-06-08T10:11:12.040Z,72.39
2019-06-08T10:12:12.049Z,73.20
2019-06-08T10:13:12.071Z,72.88
2019-06-08T10:14:12.969Z,72.39
2019-06-08T10:15:12.096Z,72.39
2019-06-08T10:16:12.058Z,72.72
2019-06-08T10:17:12.053Z,72.68
2019-06-08T10:18:12.054Z,73.20
2019-06-08T10:19:12.068Z,73.30
2019-06-08T10:20:12.066Z,73.14
2019-06-08T10:21:12.061Z,73.53
2019-06-08T10:22:12.065Z,71.89
2019-06-08T10:23:29.841Z,72.66
2019-06-08T10:24:12.067Z,72.85
2019-06-08T10:25:12.071Z,71.89
2019-06-08T10:26:12.074Z,72.56
2019-06-08T10:27:12.216Z,72.75
2019-06-08T10:28:15.939Z,72.47
2019-06-08T10:29:12.100Z,72.66
2019-06-08T10:30:12.086Z,73.24
2019-06-08T10:31:12.084Z,73.72
2019-06-08T10:32:12.087Z,73.05
2019-06-08T10:33:12.084Z,72.95
2019-06-08T10:34:12.239Z,74.49
2019-06-08T10:35:12.093Z,73.62
2019-06-08T10:36:13.032Z,72.95
2019-06-08T10:37:13.589Z,73.05
2019-06-08T10:38:12.239Z,72.95
2019-06-08T10:39:12.277Z,73.20
2019-06-08T10:40:12.122Z,73.78
2019-06-08T10:41:17.659Z,75.80
2019-06-08T10:42:12.103Z,76.03
2019-06-08T10:43:12.109Z,74.20
2019-06-08T10:44:14.301Z,73.49
2019-06-08T10:45:14.326Z,72.66
2019-06-08T10:46:17.192Z,72.66
2019-06-08T10:47:12.158Z,72.47
2019-06-08T10:48:12.114Z,74.20
2019-06-08T10:49:14.421Z,72.89
2019-06-08T10:50:15.296Z,70.64
2019-06-08T10:51:13.133Z,70.86
2019-06-08T10:52:12.489Z,71.92
2019-06-08T10:53:12.924Z,70.96
2019-06-08T10:54:12.126Z,71.06
2019-06-08T10:55:12.470Z,71.54
2019-06-08T10:56:12.483Z,71.19
2019-06-08T10:57:12.174Z,70.90
2019-06-08T10:58:12.131Z,70.42
2019-06-08T10:59:12.559Z,70.84
2019-06-08T11:00:20.188Z,68.49
2019-06-08T11:01:13.113Z,67.71
2019-06-08T11:02:14.259Z,68.68
2019-06-08T11:03:12.158Z,70.42
2019-06-08T11:04:12.159Z,68.87
2019-06-08T11:05:14.064Z,68.49
2019-06-08T11:06:13.258Z,68.01
2019-06-08T11:07:15.810Z,68.10
2019-06-08T11:08:14.603Z,67.91
2019-06-08T11:09:14.850Z,67.52
2019-06-08T11:10:12.725Z,67.07
2019-06-08T11:11:12.171Z,67.17
2019-06-08T11:12:15.090Z,69.39
2019-06-08T11:13:14.997Z,66.69
2019-06-08T11:14:13.036Z,64.95
2019-06-08T11:15:12.172Z,65.34
2019-06-08T11:16:13.526Z,64.76
2019-06-08T11:17:12.174Z,64.37
2019-06-08T11:18:13.604Z,64.11
2019-06-08T11:19:13.624Z,60.93
2019-06-08T11:20:13.715Z,57.93
2019-06-08T11:21:12.891Z,57.90
2019-06-08T11:22:14.460Z,58.10
2019-06-08T11:23:12.573Z,59.00
2019-06-08T11:24:21.713Z,58.77
2019-06-08T11:25:15.850Z,59.16
2019-06-08T11:26:19.850Z,59.35
2019-06-08T11:27:13.005Z,59.64
2019-06-08T11:28:15.024Z,58.48
2019-06-08T11:29:13.820Z,58.19
2019-06-08T11:30:20.391Z,57.81
2019-06-08T11:31:15.962Z,57.81
2019-06-08T11:32:12.716Z,57.62
2019-06-08T11:33:12.587Z,57.23
2019-06-08T11:34:12.214Z,56.36
2019-06-08T11:35:12.712Z,57.42
2019-06-08T11:36:14.728Z,57.23
2019-06-08T11:37:13.454Z,57.04
2019-06-08T11:38:12.777Z,57.42
2019-06-08T11:39:12.847Z,56.84
2019-06-08T11:40:12.970Z,55.85
2019-06-08T11:41:13.686Z,55.59
2019-06-08T11:42:13.154Z,55.49
2019-06-08T11:43:12.234Z,56.16
2019-06-08T11:44:14.681Z,56.10
2019-06-08T11:45:13.048Z,56.96
2019-06-08T11:46:12.238Z,57.19
2019-06-08T11:47:13.449Z,56.10
2019-06-08T11:48:12.251Z,55.81
2019-06-08T11:49:14.860Z,56.61
2019-06-08T11:50:13.406Z,56.13
2019-06-08T11:51:13.115Z,56.32
2019-06-08T11:52:12.254Z,57.09
2019-06-08T11:53:14.675Z,55.90
2019-06-08T11:54:27.259Z,55.33
2019-06-08T11:55:13.150Z,55.71
2019-06-08T11:56:13.590Z,55.71
2019-06-08T11:57:12.981Z,55.62
2019-06-08T11:58:13.761Z,55.20
2019-06-08T11:59:14.327Z,55.78
2019-06-08T12:00:24.134Z,56.16
2019-06-08T12:01:14.804Z,55.20
2019-06-08T12:02:14.130Z,55.59
2019-06-08T12:03:13.130Z,54.79
2019-06-08T12:04:12.281Z,55.20
2019-06-08T12:05:14.152Z,56.46
2019-06-08T12:06:14.203Z,57.52
2019-06-08T12:07:13.682Z,57.04
2019-06-08T12:08:12.661Z,58.48
2019-06-08T12:09:12.735Z,56.94
2019-06-08T12:10:12.983Z,57.93
2019-06-08T12:11:18.794Z,57.96
2019-06-08T12:12:16.225Z,57.26
2019-06-08T12:13:13.206Z,57.57
2019-06-08T12:14:13.106Z,57.96
2019-06-08T12:15:13.691Z,59.05
2019-06-08T12:16:15.957Z,56.73
2019-06-08T12:17:17.970Z,57.03
2019-06-08T12:18:12.639Z,56.15
2019-06-08T12:19:16.661Z,56.25
2019-06-08T12:20:16.848Z,55.29
2019-06-08T12:21:13.283Z,54.22
2019-06-08T12:22:13.399Z,54.51
2019-06-08T12:23:12.327Z,55.38
2019-06-08T12:24:12.428Z,53.91
2019-06-08T12:25:12.351Z,54.58
2019-06-08T12:26:12.356Z,54.97
2019-06-08T12:27:24.810Z,54.41
2019-06-08T12:28:12.607Z,54.32
2019-06-08T12:29:13.438Z,53.35
2019-06-08T12:30:19.404Z,54.22
2019-06-08T12:31:15.877Z,55.19
2019-06-08T12:32:13.929Z,54.99
2019-06-08T12:33:13.799Z,54.51
2019-06-08T12:34:13.419Z,53.42
2019-06-08T12:35:12.749Z,54.19
2019-06-08T12:36:15.187Z,54.61
2019-06-08T12:37:17.110Z,55.29
2019-06-08T12:38:13.022Z,55.09
2019-06-08T12:39:12.368Z,53.33
2019-06-08T12:40:14.558Z,54.19
2019-06-08T12:41:13.926Z,55.35
2019-06-08T12:42:16.856Z,54.29
2019-06-08T12:43:13.237Z,53.42
2019-06-08T12:44:15.107Z,55.07
2019-06-08T12:45:13.380Z,54.49
2019-06-08T12:46:13.405Z,54.41
2019-06-08T12:47:15.014Z,54.51
2019-06-08T12:48:16.197Z,52.29
2019-06-08T12:49:13.220Z,54.29
2019-06-08T12:50:13.937Z,54.39
2019-06-08T12:51:13.647Z,53.81
2019-06-08T12:52:13.884Z,54.32